Station Historical Data
Daily Summary for March 29, 2017 Units:  Both    English   Metric
« Previous Day
Next Day »
Daily Weekly Monthly Yearly Custom
  High: Low: Average:
Temperature: 52.8 °F /  11.6 °C 31.8 °F /  -0.1 °C 43.3 °F /  6.3 °C
Dew Point: 38.2 °F /  3.4 °C 28.0 °F /  -2.2 °C 32.3 °F /  0.2 °C
Humidity: 89% 46% 67%
Wind Speed: 11.0mph /  17.7km/h - 2.6mph /  4.2km/h
Wind Gust: 14.0mph /  22.5km/h - -
Wind- - SSE
Pressure: 30.31 in /  1026.3 hPa 30.16 in /  1021.2 hPa -
Precipitation: 0.00 in /  0 mm    
Historical Graphs
 
 
Tabular Data for March 29, 2017
Time Temperature Dew Point Pressure Wind Wind Speed Wind Gust Humidity Rainfall Rate (Hourly)
00:04 42.2 °F /  5.7 °C 36.5 °F /  2.5 °C 30.16in /  1021.2hPa NNW 6.0mph /  9.7km/h 10.0mph /  16.1km/h 80% 0.00in /  0mm
00:09 42.2 °F /  5.7 °C 36.5 °F /  2.5 °C 30.16in /  1021.2hPa NW 2.0mph /  3.2km/h 8.0mph /  12.9km/h 80% 0.00in /  0mm
00:14 42.1 °F /  5.6 °C 36.4 °F /  2.4 °C 30.16in /  1021.2hPa NNW 4.0mph /  6.4km/h 8.0mph /  12.9km/h 80% 0.00in /  0mm
00:19 41.9 °F /  5.5 °C 35.9 °F /  2.2 °C 30.16in /  1021.2hPa NNW 4.0mph /  6.4km/h 9.0mph /  14.5km/h 79% 0.00in /  0mm
00:24 41.9 °F /  5.5 °C 35.9 °F /  2.2 °C 30.17in /  1021.6hPa NNW 5.0mph /  8km/h 9.0mph /  14.5km/h 79% 0.00in /  0mm
00:29 41.8 °F /  5.4 °C 35.8 °F /  2.1 °C 30.17in /  1021.6hPa NNW 4.0mph /  6.4km/h 8.0mph /  12.9km/h 79% 0.00in /  0mm
00:34 41.8 °F /  5.4 °C 35.8 °F /  2.1 °C 30.17in /  1021.6hPa North 4.0mph /  6.4km/h 7.0mph /  11.3km/h 79% 0.00in /  0mm
00:39 41.8 °F /  5.4 °C 36.1 °F /  2.3 °C 30.17in /  1021.6hPa North 3.0mph /  4.8km/h 7.0mph /  11.3km/h 80% 0.00in /  0mm
00:44 41.7 °F /  5.4 °C 36.0 °F /  2.2 °C 30.17in /  1021.6hPa NNW 3.0mph /  4.8km/h 8.0mph /  12.9km/h 80% 0.00in /  0mm
00:49 41.7 °F /  5.4 °C 36.0 °F /  2.2 °C 30.17in /  1021.6hPa NNW 2.0mph /  3.2km/h 6.0mph /  9.7km/h 80% 0.00in /  0mm
00:54 41.7 °F /  5.4 °C 36.0 °F /  2.2 °C 30.17in /  1021.6hPa NNW 4.0mph /  6.4km/h 7.0mph /  11.3km/h 80% 0.00in /  0mm
00:59 41.6 °F /  5.3 °C 35.9 °F /  2.2 °C 30.17in /  1021.6hPa North 6.0mph /  9.7km/h 8.0mph /  12.9km/h 80% 0.00in /  0mm
01:04 41.5 °F /  5.3 °C 35.8 °F /  2.1 °C 30.17in /  1021.6hPa NNW 3.0mph /  4.8km/h 6.0mph /  9.7km/h 80% 0.00in /  0mm
01:09 41.5 °F /  5.3 °C 35.8 °F /  2.1 °C 30.17in /  1021.6hPa NNW 5.0mph /  8km/h 6.0mph /  9.7km/h 80% 0.00in /  0mm
01:14 41.4 °F /  5.2 °C 35.7 °F /  2.1 °C 30.17in /  1021.6hPa NNW 2.0mph /  3.2km/h 7.0mph /  11.3km/h 80% 0.00in /  0mm
01:19 41.4 °F /  5.2 °C 36.0 °F /  2.2 °C 30.17in /  1021.6hPa NNW 2.0mph /  3.2km/h 7.0mph /  11.3km/h 81% 0.00in /  0mm
01:24 41.4 °F /  5.2 °C 36.0 °F /  2.2 °C 30.17in /  1021.6hPa NNW 2.0mph /  3.2km/h 7.0mph /  11.3km/h 81% 0.00in /  0mm
01:29 41.3 °F /  5.2 °C 35.9 °F /  2.2 °C 30.17in /  1021.6hPa NNW 3.0mph /  4.8km/h 7.0mph /  11.3km/h 81% 0.00in /  0mm
01:34 41.2 °F /  5.1 °C 35.8 °F /  2.1 °C 30.18in /  1021.9hPa NNW 2.0mph /  3.2km/h 9.0mph /  14.5km/h 81% 0.00in /  0mm
01:39 41.1 °F /  5.1 °C 35.4 °F /  1.9 °C 30.17in /  1021.6hPa North 3.0mph /  4.8km/h 9.0mph /  14.5km/h 80% 0.00in /  0mm
01:44 40.9 °F /  4.9 °C 35.2 °F /  1.8 °C 30.17in /  1021.6hPa NNW 4.0mph /  6.4km/h 7.0mph /  11.3km/h 80% 0.00in /  0mm
01:49 40.7 °F /  4.8 °C 35.0 °F /  1.7 °C 30.17in /  1021.6hPa NNW 4.0mph /  6.4km/h 7.0mph /  11.3km/h 80% 0.00in /  0mm
01:54 40.6 °F /  4.8 °C 34.9 °F /  1.6 °C 30.17in /  1021.6hPa NNW 2.0mph /  3.2km/h 5.0mph /  8km/h 80% 0.00in /  0mm
01:59 40.5 °F /  4.7 °C 34.8 °F /  1.6 °C 30.17in /  1021.6hPa North 1.0mph /  1.6km/h 5.0mph /  8km/h 80% 0.00in /  0mm
02:04 40.3 °F /  4.6 °C 34.6 °F /  1.4 °C 30.17in /  1021.6hPa NNW 1.0mph /  1.6km/h 4.0mph /  6.4km/h 80% 0.00in /  0mm
02:09 40.1 °F /  4.5 °C 34.4 °F /  1.3 °C 30.17in /  1021.6hPa NNW 1.0mph /  1.6km/h 2.0mph /  3.2km/h 80% 0.00in /  0mm
02:14 40.0 °F /  4.4 °C 34.6 °F /  1.4 °C 30.17in /  1021.6hPa NNW 1.0mph /  1.6km/h 2.0mph /  3.2km/h 81% 0.00in /  0mm
02:19 39.8 °F /  4.3 °C 34.4 °F /  1.3 °C 30.18in /  1021.9hPa NW 1.0mph /  1.6km/h 3.0mph /  4.8km/h 81% 0.00in /  0mm
02:24 39.7 °F /  4.3 °C 34.3 °F /  1.3 °C 30.18in /  1021.9hPa NNW 1.0mph /  1.6km/h 4.0mph /  6.4km/h 81% 0.00in /  0mm
02:29 39.7 °F /  4.3 °C 34.3 °F /  1.3 °C 30.18in /  1021.9hPa NNW 1.0mph /  1.6km/h 4.0mph /  6.4km/h 81% 0.00in /  0mm
02:34 39.6 °F /  4.2 °C 34.2 °F /  1.2 °C 30.18in /  1021.9hPa NNW 1.0mph /  1.6km/h 4.0mph /  6.4km/h 81% 0.00in /  0mm
02:39 39.6 °F /  4.2 °C 34.2 °F /  1.2 °C 30.19in /  1022.2hPa NNW 1.0mph /  1.6km/h 3.0mph /  4.8km/h 81% 0.00in /  0mm
02:44 39.6 °F /  4.2 °C 34.2 °F /  1.2 °C 30.19in /  1022.2hPa NNW 1.0mph /  1.6km/h 4.0mph /  6.4km/h 81% 0.00in /  0mm
02:49 39.8 °F /  4.3 °C 34.4 °F /  1.3 °C 30.20in /  1022.6hPa NW 1.0mph /  1.6km/h 4.0mph /  6.4km/h 81% 0.00in /  0mm
02:54 39.8 °F /  4.3 °C 34.4 °F /  1.3 °C 30.20in /  1022.6hPa NNW 2.0mph /  3.2km/h 8.0mph /  12.9km/h 81% 0.00in /  0mm
02:59 39.8 °F /  4.3 °C 34.1 °F /  1.2 °C 30.20in /  1022.6hPa NNW 3.0mph /  4.8km/h 8.0mph /  12.9km/h 80% 0.00in /  0mm
03:04 39.7 °F /  4.3 °C 34.0 °F /  1.1 °C 30.19in /  1022.2hPa NW 1.0mph /  1.6km/h 4.0mph /  6.4km/h 80% 0.00in /  0mm
03:09 39.6 °F /  4.2 °C 33.9 °F /  1.1 °C 30.19in /  1022.2hPa NNW 2.0mph /  3.2km/h 3.0mph /  4.8km/h 80% 0.00in /  0mm
03:14 39.6 °F /  4.2 °C 33.9 °F /  1.1 °C 30.19in /  1022.2hPa NNW 2.0mph /  3.2km/h 6.0mph /  9.7km/h 80% 0.00in /  0mm
03:19 39.5 °F /  4.2 °C 33.8 °F /  1 °C 30.19in /  1022.2hPa North 3.0mph /  4.8km/h 4.0mph /  6.4km/h 80% 0.00in /  0mm
03:24 39.4 °F /  4.1 °C 33.7 °F /  0.9 °C 30.20in /  1022.6hPa NNW 2.0mph /  3.2km/h 4.0mph /  6.4km/h 80% 0.00in /  0mm
03:29 39.3 °F /  4.1 °C 33.6 °F /  0.9 °C 30.20in /  1022.6hPa NNW 1.0mph /  1.6km/h 5.0mph /  8km/h 80% 0.00in /  0mm
03:34 39.3 °F /  4.1 °C 33.6 °F /  0.9 °C 30.20in /  1022.6hPa NNW 1.0mph /  1.6km/h 5.0mph /  8km/h 80% 0.00in /  0mm
03:39 39.2 °F /  4 °C 33.5 °F /  0.8 °C 30.19in /  1022.2hPa North 3.0mph /  4.8km/h 5.0mph /  8km/h 80% 0.00in /  0mm
03:44 39.2 °F /  4 °C 33.5 °F /  0.8 °C 30.20in /  1022.6hPa NNW 2.0mph /  3.2km/h 6.0mph /  9.7km/h 80% 0.00in /  0mm
03:49 39.1 °F /  3.9 °C 33.5 °F /  0.8 °C 30.19in /  1022.2hPa NNW 3.0mph /  4.8km/h 7.0mph /  11.3km/h 80% 0.00in /  0mm
03:54 39.0 °F /  3.9 °C 33.4 °F /  0.8 °C 30.19in /  1022.2hPa NNW 1.0mph /  1.6km/h 5.0mph /  8km/h 80% 0.00in /  0mm
03:59 38.9 °F /  3.8 °C 33.3 °F /  0.7 °C 30.19in /  1022.2hPa NNW 2.0mph /  3.2km/h 5.0mph /  8km/h 80% 0.00in /  0mm
04:04 38.8 °F /  3.8 °C 33.2 °F /  0.7 °C 30.19in /  1022.2hPa NNW 2.0mph /  3.2km/h 6.0mph /  9.7km/h 80% 0.00in /  0mm
04:09 38.7 °F /  3.7 °C 33.1 °F /  0.6 °C 30.19in /  1022.2hPa NNW 2.0mph /  3.2km/h 6.0mph /  9.7km/h 80% 0.00in /  0mm
04:14 38.6 °F /  3.7 °C 33.3 °F /  0.7 °C 30.19in /  1022.2hPa NNW 2.0mph /  3.2km/h 5.0mph /  8km/h 81% 0.00in /  0mm
04:19 38.5 °F /  3.6 °C 33.2 °F /  0.7 °C 30.19in /  1022.2hPa NNE 2.0mph /  3.2km/h 5.0mph /  8km/h 81% 0.00in /  0mm
04:24 38.3 °F /  3.5 °C 33.0 °F /  0.6 °C 30.19in /  1022.2hPa Calm   3.0mph /  4.8km/h 81% 0.00in /  0mm
04:29 38.2 °F /  3.4 °C 32.9 °F /  0.5 °C 30.19in /  1022.2hPa North 1.0mph /  1.6km/h 3.0mph /  4.8km/h 81% 0.00in /  0mm
04:34 38.0 °F /  3.3 °C 33.0 °F /  0.6 °C 30.20in /  1022.6hPa Calm   2.0mph /  3.2km/h 82% 0.00in /  0mm
04:39 37.7 °F /  3.2 °C 32.7 °F /  0.4 °C 30.20in /  1022.6hPa Calm   1.0mph /  1.6km/h 82% 0.00in /  0mm
04:44 37.7 °F /  3.2 °C 32.7 °F /  0.4 °C 30.20in /  1022.6hPa Calm     82% 0.00in /  0mm
04:49 37.7 °F /  3.2 °C 32.7 °F /  0.4 °C 30.19in /  1022.2hPa NNW 1.0mph /  1.6km/h 2.0mph /  3.2km/h 82% 0.00in /  0mm
04:54 37.6 °F /  3.1 °C 32.9 °F /  0.5 °C 30.20in /  1022.6hPa Calm   2.0mph /  3.2km/h 83% 0.00in /  0mm
04:59 37.6 °F /  3.1 °C 32.9 °F /  0.5 °C 30.20in /  1022.6hPa Calm   2.0mph /  3.2km/h 83% 0.00in /  0mm
05:04 37.4 °F /  3 °C 32.7 °F /  0.4 °C 30.20in /  1022.6hPa Calm     83% 0.00in /  0mm
05:09 37.2 °F /  2.9 °C 32.5 °F /  0.3 °C 30.20in /  1022.6hPa Calm     83% 0.00in /  0mm
05:14 36.9 °F /  2.7 °C 32.2 °F /  0.1 °C 30.20in /  1022.6hPa Calm     83% 0.00in /  0mm
05:19 36.7 °F /  2.6 °C 32.0 °F /  0 °C 30.20in /  1022.6hPa Calm     83% 0.00in /  0mm
05:24 36.5 °F /  2.5 °C 32.1 °F /  0.1 °C 30.20in /  1022.6hPa Calm     84% 0.00in /  0mm
05:29 36.1 °F /  2.3 °C 31.7 °F /  -0.2 °C 30.20in /  1022.6hPa Calm     84% 0.00in /  0mm
05:34 35.9 °F /  2.2 °C 31.5 °F /  -0.3 °C 30.20in /  1022.6hPa Calm     84% 0.00in /  0mm
05:39 35.5 °F /  1.9 °C 31.1 °F /  -0.5 °C 30.20in /  1022.6hPa Calm     84% 0.00in /  0mm
05:44 35.2 °F /  1.8 °C 31.1 °F /  -0.5 °C 30.20in /  1022.6hPa Calm     85% 0.00in /  0mm
05:49 34.9 °F /  1.6 °C 30.8 °F /  -0.7 °C 30.20in /  1022.6hPa Calm     85% 0.00in /  0mm
05:54 34.6 °F /  1.4 °C 30.8 °F /  -0.7 °C 30.20in /  1022.6hPa Calm     86% 0.00in /  0mm
05:59 34.4 °F /  1.3 °C 30.6 °F /  -0.8 °C 30.20in /  1022.6hPa North 1.0mph /  1.6km/h 2.0mph /  3.2km/h 86% 0.00in /  0mm
06:04 34.4 °F /  1.3 °C 30.6 °F /  -0.8 °C 30.20in /  1022.6hPa Calm   2.0mph /  3.2km/h 86% 0.00in /  0mm
06:09 34.4 °F /  1.3 °C 30.6 °F /  -0.8 °C 30.21in /  1022.9hPa Calm   2.0mph /  3.2km/h 86% 0.00in /  0mm
06:14 34.3 °F /  1.3 °C 30.5 °F /  -0.8 °C 30.21in /  1022.9hPa Calm     86% 0.00in /  0mm
06:19 34.2 °F /  1.2 °C 30.4 °F /  -0.9 °C 30.21in /  1022.9hPa Calm     86% 0.00in /  0mm
06:24 34.0 °F /  1.1 °C 30.3 °F /  -0.9 °C 30.21in /  1022.9hPa Calm     86% 0.00in /  0mm
06:29 33.9 °F /  1.1 °C 30.2 °F /  -1 °C 30.20in /  1022.6hPa Calm     86% 0.00in /  0mm
06:34 33.7 °F /  0.9 °C 30.0 °F /  -1.1 °C 30.21in /  1022.9hPa Calm   2.0mph /  3.2km/h 86% 0.00in /  0mm
06:39 33.5 °F /  0.8 °C 29.8 °F /  -1.2 °C 30.21in /  1022.9hPa Calm   2.0mph /  3.2km/h 86% 0.00in /  0mm
06:44 33.5 °F /  0.8 °C 29.8 °F /  -1.2 °C 30.21in /  1022.9hPa Calm   1.0mph /  1.6km/h 86% 0.00in /  0mm
06:49 33.3 °F /  0.7 °C 29.6 °F /  -1.3 °C 30.22in /  1023.2hPa Calm     86% 0.00in /  0mm
06:54 33.2 °F /  0.7 °C 29.5 °F /  -1.4 °C 30.22in /  1023.2hPa Calm     86% 0.00in /  0mm
06:59 33.0 °F /  0.6 °C 29.3 °F /  -1.5 °C 30.22in /  1023.2hPa Calm     86% 0.00in /  0mm
07:04 32.8 °F /  0.4 °C 29.1 °F /  -1.6 °C 30.22in /  1023.2hPa Calm     86% 0.00in /  0mm
07:09 32.6 °F /  0.3 °C 28.9 °F /  -1.7 °C 30.22in /  1023.2hPa Calm     86% 0.00in /  0mm
07:14 32.4 °F /  0.2 °C 28.4 °F /  -2 °C 30.22in /  1023.2hPa Calm     85% 0.00in /  0mm
07:19 32.3 °F /  0.2 °C 28.3 °F /  -2.1 °C 30.22in /  1023.2hPa Calm     85% 0.00in /  0mm
07:24 32.2 °F /  0.1 °C 28.2 °F /  -2.1 °C 30.23in /  1023.6hPa Calm     85% 0.00in /  0mm
07:29 32.1 °F /  0.1 °C 28.4 °F /  -2 °C 30.23in /  1023.6hPa Calm     86% 0.00in /  0mm
07:34 32.0 °F /  0 °C 28.3 °F /  -2.1 °C 30.23in /  1023.6hPa Calm     86% 0.00in /  0mm
07:39 31.9 °F /  -0.1 °C 28.2 °F /  -2.1 °C 30.23in /  1023.6hPa Calm     86% 0.00in /  0mm
07:44 31.9 °F /  -0.1 °C 28.2 °F /  -2.1 °C 30.23in /  1023.6hPa Calm     86% 0.00in /  0mm
07:49 31.8 °F /  -0.1 °C 28.1 °F /  -2.2 °C 30.24in /  1023.9hPa Calm     86% 0.00in /  0mm
07:54 31.9 °F /  -0.1 °C 28.5 °F /  -1.9 °C 30.24in /  1023.9hPa Calm     87% 0.00in /  0mm
07:59 32.7 °F /  0.4 °C 29.8 °F /  -1.2 °C 30.24in /  1023.9hPa Calm     89% 0.00in /  0mm
08:04 35.0 °F /  1.7 °C 32.1 °F /  0.1 °C 30.24in /  1023.9hPa Calm     89% 0.00in /  0mm
08:09 36.0 °F /  2.2 °C 32.8 °F /  0.4 °C 30.25in /  1024.3hPa Calm     88% 0.00in /  0mm
08:14 36.4 °F /  2.4 °C 32.9 °F /  0.5 °C 30.25in /  1024.3hPa Calm     87% 0.00in /  0mm
08:19 36.6 °F /  2.6 °C 33.1 °F /  0.6 °C 30.25in /  1024.3hPa Calm   1.0mph /  1.6km/h 87% 0.00in /  0mm
08:24 36.8 °F /  2.7 °C 33.0 °F /  0.6 °C 30.25in /  1024.3hPa Calm     86% 0.00in /  0mm
08:29 37.4 °F /  3 °C 33.6 °F /  0.9 °C 30.25in /  1024.3hPa Calm     86% 0.00in /  0mm
08:34 38.1 °F /  3.4 °C 33.7 °F /  0.9 °C 30.25in /  1024.3hPa Calm     84% 0.00in /  0mm
08:39 38.7 °F /  3.7 °C 34.0 °F /  1.1 °C 30.25in /  1024.3hPa Calm     83% 0.00in /  0mm
08:44 39.7 °F /  4.3 °C 34.7 °F /  1.5 °C 30.26in /  1024.6hPa Calm   1.0mph /  1.6km/h 82% 0.00in /  0mm
08:49 40.5 °F /  4.7 °C 35.1 °F /  1.7 °C 30.26in /  1024.6hPa Calm   2.0mph /  3.2km/h 81% 0.00in /  0mm
08:54 41.2 °F /  5.1 °C 35.2 °F /  1.8 °C 30.26in /  1024.6hPa Calm   2.0mph /  3.2km/h 79% 0.00in /  0mm
08:59 41.1 °F /  5.1 °C 35.1 °F /  1.7 °C 30.26in /  1024.6hPa Calm     79% 0.00in /  0mm
09:04 41.3 °F /  5.2 °C 35.3 °F /  1.8 °C 30.26in /  1024.6hPa Calm   3.0mph /  4.8km/h 79% 0.00in /  0mm
09:09 41.5 °F /  5.3 °C 35.8 °F /  2.1 °C 30.26in /  1024.6hPa ESE 2.0mph /  3.2km/h 4.0mph /  6.4km/h 80% 0.00in /  0mm
09:14 42.1 °F /  5.6 °C 35.7 °F /  2.1 °C 30.26in /  1024.6hPa ESE 1.0mph /  1.6km/h 4.0mph /  6.4km/h 78% 0.00in /  0mm
09:19 42.6 °F /  5.9 °C 35.9 °F /  2.2 °C 30.26in /  1024.6hPa East 1.0mph /  1.6km/h 3.0mph /  4.8km/h 77% 0.00in /  0mm
09:24 42.7 °F /  5.9 °C 36.0 °F /  2.2 °C 30.26in /  1024.6hPa NE 2.0mph /  3.2km/h 3.0mph /  4.8km/h 77% 0.00in /  0mm
09:29 43.3 °F /  6.3 °C 36.6 °F /  2.6 °C 30.26in /  1024.6hPa NE 1.0mph /  1.6km/h 3.0mph /  4.8km/h 77% 0.00in /  0mm
09:34 43.6 °F /  6.4 °C 36.5 °F /  2.5 °C 30.27in /  1024.9hPa Calm   3.0mph /  4.8km/h 76% 0.00in /  0mm
09:39 44.2 °F /  6.8 °C 37.1 °F /  2.8 °C 30.26in /  1024.6hPa Calm   4.0mph /  6.4km/h 76% 0.00in /  0mm
09:44 44.0 °F /  6.7 °C 36.6 °F /  2.6 °C 30.27in /  1024.9hPa ENE 1.0mph /  1.6km/h 4.0mph /  6.4km/h 75% 0.00in /  0mm
09:49 44.4 °F /  6.9 °C 37.3 °F /  2.9 °C 30.26in /  1024.6hPa ENE 1.0mph /  1.6km/h 5.0mph /  8km/h 76% 0.00in /  0mm
09:54 44.3 °F /  6.8 °C 36.5 °F /  2.5 °C 30.26in /  1024.6hPa ENE 1.0mph /  1.6km/h 5.0mph /  8km/h 74% 0.00in /  0mm
09:59 45.2 °F /  7.3 °C 38.1 °F /  3.4 °C 30.26in /  1024.6hPa ENE 2.0mph /  3.2km/h 5.0mph /  8km/h 76% 0.00in /  0mm
10:04 44.5 °F /  6.9 °C 36.4 °F /  2.4 °C 30.27in /  1024.9hPa NNE 1.0mph /  1.6km/h 4.0mph /  6.4km/h 73% 0.00in /  0mm
10:09 45.3 °F /  7.4 °C 37.2 °F /  2.9 °C 30.27in /  1024.9hPa NNW 1.0mph /  1.6km/h 3.0mph /  4.8km/h 73% 0.00in /  0mm
10:14 46.3 °F /  7.9 °C 38.1 °F /  3.4 °C 30.27in /  1024.9hPa NNE 2.0mph /  3.2km/h 5.0mph /  8km/h 73% 0.00in /  0mm
10:19 45.7 °F /  7.6 °C 36.8 °F /  2.7 °C 30.27in /  1024.9hPa NNE 2.0mph /  3.2km/h 3.0mph /  4.8km/h 71% 0.00in /  0mm
10:24 47.1 °F /  8.4 °C 38.2 °F /  3.4 °C 30.27in /  1024.9hPa East 2.0mph /  3.2km/h 4.0mph /  6.4km/h 71% 0.00in /  0mm
10:29 47.1 °F /  8.4 °C 38.2 °F /  3.4 °C 30.27in /  1024.9hPa East 3.0mph /  4.8km/h 5.0mph /  8km/h 71% 0.00in /  0mm
10:34 47.3 °F /  8.5 °C 38.0 °F /  3.3 °C 30.27in /  1024.9hPa Calm   5.0mph /  8km/h 70% 0.00in /  0mm
10:39 47.1 °F /  8.4 °C 36.3 °F /  2.4 °C 30.28in /  1025.3hPa NNE 2.0mph /  3.2km/h 5.0mph /  8km/h 66% 0.00in /  0mm
10:44 47.6 °F /  8.7 °C 37.6 °F /  3.1 °C 30.28in /  1025.3hPa ENE 2.0mph /  3.2km/h 8.0mph /  12.9km/h 68% 0.00in /  0mm
10:49 47.7 °F /  8.7 °C 36.5 °F /  2.5 °C 30.28in /  1025.3hPa ENE 2.0mph /  3.2km/h 8.0mph /  12.9km/h 65% 0.00in /  0mm
10:54 47.8 °F /  8.8 °C 35.4 °F /  1.9 °C 30.28in /  1025.3hPa North 1.0mph /  1.6km/h 5.0mph /  8km/h 62% 0.00in /  0mm
10:59 48.7 °F /  9.3 °C 35.4 °F /  1.9 °C 30.28in /  1025.3hPa NNW 2.0mph /  3.2km/h 6.0mph /  9.7km/h 60% 0.00in /  0mm
11:04 49.2 °F /  9.6 °C 35.9 °F /  2.2 °C 30.27in /  1024.9hPa NNW 3.0mph /  4.8km/h 7.0mph /  11.3km/h 60% 0.00in /  0mm
11:09 48.8 °F /  9.3 °C 33.3 °F /  0.7 °C 30.27in /  1024.9hPa NNW 2.0mph /  3.2km/h 7.0mph /  11.3km/h 55% 0.00in /  0mm
11:14 48.3 °F /  9.1 °C 32.4 °F /  0.2 °C 30.27in /  1024.9hPa South 1.0mph /  1.6km/h 7.0mph /  11.3km/h 54% 0.00in /  0mm
11:19 48.9 °F /  9.4 °C 32.5 °F /  0.3 °C 30.27in /  1024.9hPa NNE 4.0mph /  6.4km/h 6.0mph /  9.7km/h 53% 0.00in /  0mm
11:24 49.3 °F /  9.6 °C 32.4 °F /  0.2 °C 30.28in /  1025.3hPa NNE 3.0mph /  4.8km/h 7.0mph /  11.3km/h 52% 0.00in /  0mm
11:29 48.8 °F /  9.3 °C 32.9 °F /  0.5 °C 30.28in /  1025.3hPa North 2.0mph /  3.2km/h 5.0mph /  8km/h 54% 0.00in /  0mm
11:34 49.0 °F /  9.4 °C 31.2 °F /  -0.4 °C 30.28in /  1025.3hPa NW 1.0mph /  1.6km/h 5.0mph /  8km/h 50% 0.00in /  0mm
11:39 49.2 °F /  9.6 °C 31.3 °F /  -0.4 °C 30.28in /  1025.3hPa NNE 2.0mph /  3.2km/h 5.0mph /  8km/h 50% 0.00in /  0mm
11:44 49.2 °F /  9.6 °C 32.8 °F /  0.4 °C 30.28in /  1025.3hPa NNE 4.0mph /  6.4km/h 7.0mph /  11.3km/h 53% 0.00in /  0mm
11:49 49.3 °F /  9.6 °C 30.9 °F /  -0.6 °C 30.28in /  1025.3hPa North 3.0mph /  4.8km/h 7.0mph /  11.3km/h 49% 0.00in /  0mm
11:54 49.2 °F /  9.6 °C 31.8 °F /  -0.1 °C 30.27in /  1024.9hPa NW 3.0mph /  4.8km/h 7.0mph /  11.3km/h 51% 0.00in /  0mm
11:59 49.7 °F /  9.8 °C 31.8 °F /  -0.1 °C 30.27in /  1024.9hPa West 3.0mph /  4.8km/h 5.0mph /  8km/h 50% 0.00in /  0mm
12:04 49.9 °F /  9.9 °C 31.5 °F /  -0.3 °C 30.27in /  1024.9hPa NW 3.0mph /  4.8km/h 7.0mph /  11.3km/h 49% 0.00in /  0mm
12:09 50.3 °F /  10.2 °C 30.8 °F /  -0.7 °C 30.27in /  1024.9hPa West 3.0mph /  4.8km/h 13.0mph /  20.9km/h 47% 0.00in /  0mm
12:14 50.7 °F /  10.4 °C 33.7 °F /  0.9 °C 30.28in /  1025.3hPa WNW 6.0mph /  9.7km/h 6.0mph /  9.7km/h 52% 0.00in /  0mm
12:19 51.3 °F /  10.7 °C 33.3 °F /  0.7 °C 30.27in /  1024.9hPa NNW 9.0mph /  14.5km/h 11.0mph /  17.7km/h 50% 0.00in /  0mm
12:24 51.1 °F /  10.6 °C 32.6 °F /  0.3 °C 30.27in /  1024.9hPa North 5.0mph /  8km/h 11.0mph /  17.7km/h 49% 0.00in /  0mm
12:29 50.2 °F /  10.1 °C 31.8 °F /  -0.1 °C 30.27in /  1024.9hPa NW 2.0mph /  3.2km/h 10.0mph /  16.1km/h 49% 0.00in /  0mm
12:34 50.5 °F /  10.3 °C 32.5 °F /  0.3 °C 30.27in /  1024.9hPa NNW 2.0mph /  3.2km/h 7.0mph /  11.3km/h 50% 0.00in /  0mm
12:39 49.6 °F /  9.8 °C 30.7 °F /  -0.7 °C 30.27in /  1024.9hPa North 5.0mph /  8km/h 6.0mph /  9.7km/h 48% 0.00in /  0mm
12:44 50.3 °F /  10.2 °C 33.8 °F /  1 °C 30.26in /  1024.6hPa NNE 4.0mph /  6.4km/h 5.0mph /  8km/h 53% 0.00in /  0mm
12:49 51.1 °F /  10.6 °C 33.1 °F /  0.6 °C 30.26in /  1024.6hPa North 4.0mph /  6.4km/h 7.0mph /  11.3km/h 50% 0.00in /  0mm
12:54 50.8 °F /  10.4 °C 32.3 °F /  0.2 °C 30.26in /  1024.6hPa NW 3.0mph /  4.8km/h 8.0mph /  12.9km/h 49% 0.00in /  0mm
12:59 51.7 °F /  10.9 °C 32.6 °F /  0.3 °C 30.26in /  1024.6hPa NW 4.0mph /  6.4km/h 10.0mph /  16.1km/h 48% 0.00in /  0mm
13:04 50.7 °F /  10.4 °C 32.7 °F /  0.4 °C 30.26in /  1024.6hPa NW 4.0mph /  6.4km/h 10.0mph /  16.1km/h 50% 0.00in /  0mm
13:09 49.9 °F /  9.9 °C 31.0 °F /  -0.6 °C 30.26in /  1024.6hPa North 4.0mph /  6.4km/h 11.0mph /  17.7km/h 48% 0.00in /  0mm
13:14 50.0 °F /  10 °C 31.6 °F /  -0.2 °C 30.26in /  1024.6hPa North 5.0mph /  8km/h 11.0mph /  17.7km/h 49% 0.00in /  0mm
13:19 49.6 °F /  9.8 °C 30.7 °F /  -0.7 °C 30.26in /  1024.6hPa NE 4.0mph /  6.4km/h 11.0mph /  17.7km/h 48% 0.00in /  0mm
13:24 49.9 °F /  9.9 °C 32.0 °F /  0 °C 30.26in /  1024.6hPa NNE 5.0mph /  8km/h 11.0mph /  17.7km/h 50% 0.00in /  0mm
13:29 50.1 °F /  10.1 °C 30.1 °F /  -1.1 °C 30.26in /  1024.6hPa NNE 4.0mph /  6.4km/h 14.0mph /  22.5km/h 46% 0.00in /  0mm
13:34 49.9 °F /  9.9 °C 31.0 °F /  -0.6 °C 30.26in /  1024.6hPa NW 4.0mph /  6.4km/h 9.0mph /  14.5km/h 48% 0.00in /  0mm
13:39 51.5 °F /  10.8 °C 33.0 °F /  0.6 °C 30.26in /  1024.6hPa North 3.0mph /  4.8km/h 7.0mph /  11.3km/h 49% 0.00in /  0mm
13:44 50.8 °F /  10.4 °C 33.3 °F /  0.7 °C 30.26in /  1024.6hPa NNE 3.0mph /  4.8km/h 9.0mph /  14.5km/h 51% 0.00in /  0mm
13:49 50.4 °F /  10.2 °C 33.9 °F /  1.1 °C 30.26in /  1024.6hPa NNE 6.0mph /  9.7km/h 9.0mph /  14.5km/h 53% 0.00in /  0mm
13:54 49.9 °F /  9.9 °C 33.4 °F /  0.8 °C 30.25in /  1024.3hPa North 4.0mph /  6.4km/h 10.0mph /  16.1km/h 53% 0.00in /  0mm
13:59 49.9 °F /  9.9 °C 33.0 °F /  0.6 °C 30.26in /  1024.6hPa North 4.0mph /  6.4km/h 10.0mph /  16.1km/h 52% 0.00in /  0mm
14:04 49.9 °F /  9.9 °C 32.5 °F /  0.3 °C 30.25in /  1024.3hPa NNE 4.0mph /  6.4km/h 7.0mph /  11.3km/h 51% 0.00in /  0mm
14:09 50.3 °F /  10.2 °C 34.7 °F /  1.5 °C 30.25in /  1024.3hPa ENE 7.0mph /  11.3km/h 8.0mph /  12.9km/h 55% 0.00in /  0mm
14:14 50.4 °F /  10.2 °C 33.9 °F /  1.1 °C 30.25in /  1024.3hPa NNE 4.0mph /  6.4km/h 8.0mph /  12.9km/h 53% 0.00in /  0mm
14:19 50.1 °F /  10.1 °C 34.1 °F /  1.2 °C 30.25in /  1024.3hPa North 3.0mph /  4.8km/h 7.0mph /  11.3km/h 54% 0.00in /  0mm
14:24 50.2 °F /  10.1 °C 32.8 °F /  0.4 °C 30.25in /  1024.3hPa North 4.0mph /  6.4km/h 8.0mph /  12.9km/h 51% 0.00in /  0mm
14:29 49.7 °F /  9.8 °C 33.2 °F /  0.7 °C 30.25in /  1024.3hPa NNE 5.0mph /  8km/h 8.0mph /  12.9km/h 53% 0.00in /  0mm
14:34 49.7 °F /  9.8 °C 33.7 °F /  0.9 °C 30.25in /  1024.3hPa NNE 4.0mph /  6.4km/h 8.0mph /  12.9km/h 54% 0.00in /  0mm
14:39 49.8 °F /  9.9 °C 33.8 °F /  1 °C 30.25in /  1024.3hPa NNE 3.0mph /  4.8km/h 9.0mph /  14.5km/h 54% 0.00in /  0mm
14:44 51.3 °F /  10.7 °C 34.7 °F /  1.5 °C 30.25in /  1024.3hPa North 5.0mph /  8km/h 11.0mph /  17.7km/h 53% 0.00in /  0mm
14:49 52.8 °F /  11.6 °C 34.7 °F /  1.5 °C 30.25in /  1024.3hPa NW 2.0mph /  3.2km/h 7.0mph /  11.3km/h 50% 0.00in /  0mm
14:54 51.8 °F /  11 °C 33.2 °F /  0.7 °C 30.25in /  1024.3hPa North 5.0mph /  8km/h 9.0mph /  14.5km/h 49% 0.00in /  0mm
14:59 50.4 °F /  10.2 °C 33.4 °F /  0.8 °C 30.25in /  1024.3hPa North 4.0mph /  6.4km/h 9.0mph /  14.5km/h 52% 0.00in /  0mm
15:04 50.7 °F /  10.4 °C 32.7 °F /  0.4 °C 30.25in /  1024.3hPa NNE 4.0mph /  6.4km/h 10.0mph /  16.1km/h 50% 0.00in /  0mm
15:09 50.7 °F /  10.4 °C 34.2 °F /  1.2 °C 30.25in /  1024.3hPa NNE 4.0mph /  6.4km/h 10.0mph /  16.1km/h 53% 0.00in /  0mm
15:14 51.5 °F /  10.8 °C 34.9 °F /  1.6 °C 30.25in /  1024.3hPa NE 7.0mph /  11.3km/h 11.0mph /  17.7km/h 53% 0.00in /  0mm
15:19 51.2 °F /  10.7 °C 33.2 °F /  0.7 °C 30.25in /  1024.3hPa North 5.0mph /  8km/h 10.0mph /  16.1km/h 50% 0.00in /  0mm
15:24 52.5 °F /  11.4 °C 33.4 °F /  0.8 °C 30.25in /  1024.3hPa NNW 7.0mph /  11.3km/h 10.0mph /  16.1km/h 48% 0.00in /  0mm
15:29 51.6 °F /  10.9 °C 31.5 °F /  -0.3 °C 30.25in /  1024.3hPa North 5.0mph /  8km/h 11.0mph /  17.7km/h 46% 0.00in /  0mm
15:34 51.0 °F /  10.6 °C 32.0 °F /  0 °C 30.25in /  1024.3hPa NNW 5.0mph /  8km/h 11.0mph /  17.7km/h 48% 0.00in /  0mm
15:39 51.2 °F /  10.7 °C 33.2 °F /  0.7 °C 30.25in /  1024.3hPa NNW 5.0mph /  8km/h 11.0mph /  17.7km/h 50% 0.00in /  0mm
15:44 51.6 °F /  10.9 °C 33.0 °F /  0.6 °C 30.25in /  1024.3hPa NW 4.0mph /  6.4km/h 8.0mph /  12.9km/h 49% 0.00in /  0mm
15:49 52.1 °F /  11.2 °C 32.5 °F /  0.3 °C 30.26in /  1024.6hPa NW 5.0mph /  8km/h 9.0mph /  14.5km/h 47% 0.00in /  0mm
15:54 51.2 °F /  10.7 °C 32.7 °F /  0.4 °C 30.26in /  1024.6hPa NNW 4.0mph /  6.4km/h 9.0mph /  14.5km/h 49% 0.00in /  0mm
15:59 51.2 °F /  10.7 °C 32.7 °F /  0.4 °C 30.26in /  1024.6hPa NW 7.0mph /  11.3km/h 10.0mph /  16.1km/h 49% 0.00in /  0mm
16:04 51.2 °F /  10.7 °C 33.7 °F /  0.9 °C 30.26in /  1024.6hPa North 6.0mph /  9.7km/h 8.0mph /  12.9km/h 51% 0.00in /  0mm
16:09 51.1 °F /  10.6 °C 33.1 °F /  0.6 °C 30.26in /  1024.6hPa NNE 4.0mph /  6.4km/h 11.0mph /  17.7km/h 50% 0.00in /  0mm
16:14 50.7 °F /  10.4 °C 32.7 °F /  0.4 °C 30.27in /  1024.9hPa North 4.0mph /  6.4km/h 7.0mph /  11.3km/h 50% 0.00in /  0mm
16:19 51.0 °F /  10.6 °C 33.5 °F /  0.8 °C 30.27in /  1024.9hPa NNE 4.0mph /  6.4km/h 8.0mph /  12.9km/h 51% 0.00in /  0mm
16:24 50.4 °F /  10.2 °C 32.4 °F /  0.2 °C 30.27in /  1024.9hPa North 7.0mph /  11.3km/h 10.0mph /  16.1km/h 50% 0.00in /  0mm
16:29 50.6 °F /  10.3 °C 32.6 °F /  0.3 °C 30.27in /  1024.9hPa North 6.0mph /  9.7km/h 10.0mph /  16.1km/h 50% 0.00in /  0mm
16:34 49.7 °F /  9.8 °C 31.3 °F /  -0.4 °C 30.27in /  1024.9hPa North 4.0mph /  6.4km/h 10.0mph /  16.1km/h 49% 0.00in /  0mm
16:39 49.7 °F /  9.8 °C 31.3 °F /  -0.4 °C 30.27in /  1024.9hPa NNW 4.0mph /  6.4km/h 9.0mph /  14.5km/h 49% 0.00in /  0mm
16:44 50.2 °F /  10.1 °C 32.3 °F /  0.2 °C 30.27in /  1024.9hPa NNW 4.0mph /  6.4km/h 12.0mph /  19.3km/h 50% 0.00in /  0mm
16:49 50.9 °F /  10.5 °C 32.4 °F /  0.2 °C 30.27in /  1024.9hPa NNW 4.0mph /  6.4km/h 12.0mph /  19.3km/h 49% 0.00in /  0mm
16:54 50.1 °F /  10.1 °C 30.6 °F /  -0.8 °C 30.27in /  1024.9hPa NNW 3.0mph /  4.8km/h 8.0mph /  12.9km/h 47% 0.00in /  0mm
16:59 50.2 °F /  10.1 °C 31.8 °F /  -0.1 °C 30.27in /  1024.9hPa NE 2.0mph /  3.2km/h 9.0mph /  14.5km/h 49% 0.00in /  0mm
17:04 50.1 °F /  10.1 °C 31.7 °F /  -0.2 °C 30.27in /  1024.9hPa North 5.0mph /  8km/h 9.0mph /  14.5km/h 49% 0.00in /  0mm
17:09 49.9 °F /  9.9 °C 31.5 °F /  -0.3 °C 30.26in /  1024.6hPa North 5.0mph /  8km/h 10.0mph /  16.1km/h 49% 0.00in /  0mm
17:14 49.6 °F /  9.8 °C 31.7 °F /  -0.2 °C 30.27in /  1024.9hPa North 5.0mph /  8km/h 10.0mph /  16.1km/h 50% 0.00in /  0mm
17:19 49.3 °F /  9.6 °C 30.9 °F /  -0.6 °C 30.27in /  1024.9hPa North 5.0mph /  8km/h 10.0mph /  16.1km/h 49% 0.00in /  0mm
17:24 49.1 °F /  9.5 °C 30.7 °F /  -0.7 °C 30.27in /  1024.9hPa NNW 11.0mph /  17.7km/h 11.0mph /  17.7km/h 49% 0.00in /  0mm
17:29 49.0 °F /  9.4 °C 31.2 °F /  -0.4 °C 30.27in /  1024.9hPa NNW 8.0mph /  12.9km/h 12.0mph /  19.3km/h 50% 0.00in /  0mm
17:34 48.8 °F /  9.3 °C 30.5 °F /  -0.8 °C 30.27in /  1024.9hPa NNW 2.0mph /  3.2km/h 10.0mph /  16.1km/h 49% 0.00in /  0mm
17:39 48.7 °F /  9.3 °C 30.4 °F /  -0.9 °C 30.27in /  1024.9hPa North 4.0mph /  6.4km/h 10.0mph /  16.1km/h 49% 0.00in /  0mm
17:44 48.5 °F /  9.2 °C 30.7 °F /  -0.7 °C 30.27in /  1024.9hPa NNE 5.0mph /  8km/h 11.0mph /  17.7km/h 50% 0.00in /  0mm
17:49 48.4 °F /  9.1 °C 30.6 °F /  -0.8 °C 30.27in /  1024.9hPa NNE 5.0mph /  8km/h 11.0mph /  17.7km/h 50% 0.00in /  0mm
17:54 48.3 °F /  9.1 °C 30.5 °F /  -0.8 °C 30.27in /  1024.9hPa NNE 5.0mph /  8km/h 7.0mph /  11.3km/h 50% 0.00in /  0mm
17:59 48.0 °F /  8.9 °C 30.2 °F /  -1 °C 30.27in /  1024.9hPa North 2.0mph /  3.2km/h 7.0mph /  11.3km/h 50% 0.00in /  0mm
18:04 48.1 °F /  8.9 °C 30.3 °F /  -0.9 °C 30.28in /  1025.3hPa NNE 3.0mph /  4.8km/h 9.0mph /  14.5km/h 50% 0.00in /  0mm
18:09 47.9 °F /  8.8 °C 30.1 °F /  -1.1 °C 30.28in /  1025.3hPa NNE 5.0mph /  8km/h 10.0mph /  16.1km/h 50% 0.00in /  0mm
18:14 47.8 °F /  8.8 °C 30.0 °F /  -1.1 °C 30.28in /  1025.3hPa North 4.0mph /  6.4km/h 10.0mph /  16.1km/h 50% 0.00in /  0mm
18:19 47.6 °F /  8.7 °C 29.9 °F /  -1.2 °C 30.28in /  1025.3hPa North 4.0mph /  6.4km/h 10.0mph /  16.1km/h 50% 0.00in /  0mm
18:24 47.5 °F /  8.6 °C 30.7 °F /  -0.7 °C 30.28in /  1025.3hPa NNE 4.0mph /  6.4km/h 9.0mph /  14.5km/h 52% 0.00in /  0mm
18:29 47.2 °F /  8.4 °C 30.5 °F /  -0.8 °C 30.28in /  1025.3hPa NNE 5.0mph /  8km/h 8.0mph /  12.9km/h 52% 0.00in /  0mm
18:34 46.9 °F /  8.3 °C 30.6 °F /  -0.8 °C 30.28in /  1025.3hPa NNE 3.0mph /  4.8km/h 6.0mph /  9.7km/h 53% 0.00in /  0mm
18:39 46.7 °F /  8.2 °C 30.0 °F /  -1.1 °C 30.28in /  1025.3hPa North 4.0mph /  6.4km/h 8.0mph /  12.9km/h 52% 0.00in /  0mm
18:44 46.7 °F /  8.2 °C 30.0 °F /  -1.1 °C 30.28in /  1025.3hPa North 4.0mph /  6.4km/h 9.0mph /  14.5km/h 52% 0.00in /  0mm
18:49 46.8 °F /  8.2 °C 30.6 °F /  -0.8 °C 30.28in /  1025.3hPa NNE 4.0mph /  6.4km/h 14.0mph /  22.5km/h 53% 0.00in /  0mm
18:54 46.6 °F /  8.1 °C 31.3 °F /  -0.4 °C 30.28in /  1025.3hPa NE 4.0mph /  6.4km/h 14.0mph /  22.5km/h 55% 0.00in /  0mm
18:59 46.2 °F /  7.9 °C 30.5 °F /  -0.8 °C 30.28in /  1025.3hPa North 6.0mph /  9.7km/h 7.0mph /  11.3km/h 54% 0.00in /  0mm
19:04 46.0 °F /  7.8 °C 30.7 °F /  -0.7 °C 30.28in /  1025.3hPa NNE 5.0mph /  8km/h 8.0mph /  12.9km/h 55% 0.00in /  0mm
19:09 45.8 °F /  7.7 °C 30.5 °F /  -0.8 °C 30.28in /  1025.3hPa ENE 5.0mph /  8km/h 10.0mph /  16.1km/h 55% 0.00in /  0mm
19:14 45.7 °F /  7.6 °C 30.4 °F /  -0.9 °C 30.28in /  1025.3hPa NNE 4.0mph /  6.4km/h 11.0mph /  17.7km/h 55% 0.00in /  0mm
19:19 45.5 °F /  7.5 °C 30.3 °F /  -0.9 °C 30.28in /  1025.3hPa NE 5.0mph /  8km/h 11.0mph /  17.7km/h 55% 0.00in /  0mm
19:24 45.4 °F /  7.4 °C 30.6 °F /  -0.8 °C 30.28in /  1025.3hPa NE 4.0mph /  6.4km/h 10.0mph /  16.1km/h 56% 0.00in /  0mm
19:29 45.4 °F /  7.4 °C 30.6 °F /  -0.8 °C 30.28in /  1025.3hPa NE 3.0mph /  4.8km/h 7.0mph /  11.3km/h 56% 0.00in /  0mm
19:34 45.2 °F /  7.3 °C 30.4 °F /  -0.9 °C 30.28in /  1025.3hPa NE 4.0mph /  6.4km/h 10.0mph /  16.1km/h 56% 0.00in /  0mm
19:39 45.0 °F /  7.2 °C 30.2 °F /  -1 °C 30.28in /  1025.3hPa NE 4.0mph /  6.4km/h 10.0mph /  16.1km/h 56% 0.00in /  0mm
19:44 44.9 °F /  7.2 °C 30.1 °F /  -1.1 °C 30.28in /  1025.3hPa NE 4.0mph /  6.4km/h 9.0mph /  14.5km/h 56% 0.00in /  0mm
19:49 44.7 °F /  7.1 °C 30.0 °F /  -1.1 °C 30.28in /  1025.3hPa NNE 4.0mph /  6.4km/h 8.0mph /  12.9km/h 56% 0.00in /  0mm
19:54 44.6 °F /  7 °C 30.3 °F /  -0.9 °C 30.29in /  1025.6hPa ENE 2.0mph /  3.2km/h 7.0mph /  11.3km/h 57% 0.00in /  0mm
19:59 44.5 °F /  6.9 °C 30.2 °F /  -1 °C 30.29in /  1025.6hPa NNE 2.0mph /  3.2km/h 7.0mph /  11.3km/h 57% 0.00in /  0mm
20:04 44.3 °F /  6.8 °C 30.0 °F /  -1.1 °C 30.29in /  1025.6hPa NNE 3.0mph /  4.8km/h 5.0mph /  8km/h 57% 0.00in /  0mm
20:09 44.2 °F /  6.8 °C 30.3 °F /  -0.9 °C 30.29in /  1025.6hPa NE 2.0mph /  3.2km/h 5.0mph /  8km/h 58% 0.00in /  0mm
20:14 44.0 °F /  6.7 °C 30.2 °F /  -1 °C 30.30in /  1026hPa NE 3.0mph /  4.8km/h 6.0mph /  9.7km/h 58% 0.00in /  0mm
20:19 44.0 °F /  6.7 °C 30.2 °F /  -1 °C 30.29in /  1025.6hPa NE 3.0mph /  4.8km/h 5.0mph /  8km/h 58% 0.00in /  0mm
20:24 44.0 °F /  6.7 °C 30.2 °F /  -1 °C 30.30in /  1026hPa NE 3.0mph /  4.8km/h 5.0mph /  8km/h 58% 0.00in /  0mm
20:29 44.0 °F /  6.7 °C 29.7 °F /  -1.3 °C 30.30in /  1026hPa NE 3.0mph /  4.8km/h 7.0mph /  11.3km/h 57% 0.00in /  0mm
20:34 43.8 °F /  6.6 °C 30.0 °F /  -1.1 °C 30.30in /  1026hPa NE 4.0mph /  6.4km/h 9.0mph /  14.5km/h 58% 0.00in /  0mm
20:39 43.6 °F /  6.4 °C 29.8 °F /  -1.2 °C 30.31in /  1026.3hPa NE 3.0mph /  4.8km/h 9.0mph /  14.5km/h 58% 0.00in /  0mm
20:44 43.4 °F /  6.3 °C 29.6 °F /  -1.3 °C 30.31in /  1026.3hPa NE 2.0mph /  3.2km/h 6.0mph /  9.7km/h 58% 0.00in /  0mm
20:49 43.3 °F /  6.3 °C 29.9 °F /  -1.2 °C 30.31in /  1026.3hPa NNE 1.0mph /  1.6km/h 4.0mph /  6.4km/h 59% 0.00in /  0mm
20:54 43.1 °F /  6.2 °C 29.7 °F /  -1.3 °C 30.30in /  1026hPa NNE 2.0mph /  3.2km/h 5.0mph /  8km/h 59% 0.00in /  0mm
20:59 42.9 °F /  6.1 °C 30.0 °F /  -1.1 °C 30.31in /  1026.3hPa NE 1.0mph /  1.6km/h 4.0mph /  6.4km/h 60% 0.00in /  0mm
21:04 42.9 °F /  6.1 °C 29.5 °F /  -1.4 °C 30.31in /  1026.3hPa NE 3.0mph /  4.8km/h 4.0mph /  6.4km/h 59% 0.00in /  0mm
21:09 42.8 °F /  6 °C 29.9 °F /  -1.2 °C 30.31in /  1026.3hPa NE 3.0mph /  4.8km/h 4.0mph /  6.4km/h 60% 0.00in /  0mm
21:14 42.6 °F /  5.9 °C 29.7 °F /  -1.3 °C 30.30in /  1026hPa NE 5.0mph /  8km/h 5.0mph /  8km/h 60% 0.00in /  0mm
21:19 42.5 °F /  5.8 °C 29.6 °F /  -1.3 °C 30.30in /  1026hPa ENE 4.0mph /  6.4km/h 7.0mph /  11.3km/h 60% 0.00in /  0mm
21:24 42.5 °F /  5.8 °C 30.0 °F /  -1.1 °C 30.30in /  1026hPa NE 4.0mph /  6.4km/h 7.0mph /  11.3km/h 61% 0.00in /  0mm
21:29 42.3 °F /  5.7 °C 29.8 °F /  -1.2 °C 30.30in /  1026hPa NE 4.0mph /  6.4km/h 8.0mph /  12.9km/h 61% 0.00in /  0mm
21:34 42.0 °F /  5.6 °C 29.5 °F /  -1.4 °C 30.29in /  1025.6hPa NE 4.0mph /  6.4km/h 8.0mph /  12.9km/h 61% 0.00in /  0mm
21:39 41.9 °F /  5.5 °C 29.8 °F /  -1.2 °C 30.30in /  1026hPa NE 6.0mph /  9.7km/h 10.0mph /  16.1km/h 62% 0.00in /  0mm
21:44 41.9 °F /  5.5 °C 29.8 °F /  -1.2 °C 30.30in /  1026hPa NE 4.0mph /  6.4km/h 10.0mph /  16.1km/h 62% 0.00in /  0mm
21:49 41.8 °F /  5.4 °C 29.7 °F /  -1.3 °C 30.30in /  1026hPa NE 5.0mph /  8km/h 10.0mph /  16.1km/h 62% 0.00in /  0mm
21:54 41.6 °F /  5.3 °C 29.9 °F /  -1.2 °C 30.30in /  1026hPa ENE 7.0mph /  11.3km/h 8.0mph /  12.9km/h 63% 0.00in /  0mm
21:59 41.4 °F /  5.2 °C 29.7 °F /  -1.3 °C 30.29in /  1025.6hPa East 6.0mph /  9.7km/h 8.0mph /  12.9km/h 63% 0.00in /  0mm
22:04 41.2 °F /  5.1 °C 29.5 °F /  -1.4 °C 30.29in /  1025.6hPa NE 6.0mph /  9.7km/h 6.0mph /  9.7km/h 63% 0.00in /  0mm
22:09 41.0 °F /  5 °C 29.4 °F /  -1.4 °C 30.29in /  1025.6hPa NE 2.0mph /  3.2km/h 9.0mph /  14.5km/h 63% 0.00in /  0mm
22:14 40.8 °F /  4.9 °C 29.6 °F /  -1.3 °C 30.29in /  1025.6hPa NE 2.0mph /  3.2km/h 6.0mph /  9.7km/h 64% 0.00in /  0mm
22:19 40.6 °F /  4.8 °C 29.4 °F /  -1.4 °C 30.29in /  1025.6hPa ENE 3.0mph /  4.8km/h 8.0mph /  12.9km/h 64% 0.00in /  0mm
22:24 40.5 °F /  4.7 °C 29.7 °F /  -1.3 °C 30.29in /  1025.6hPa ENE 2.0mph /  3.2km/h 8.0mph /  12.9km/h 65% 0.00in /  0mm
22:29 40.4 °F /  4.7 °C 29.6 °F /  -1.3 °C 30.29in /  1025.6hPa ENE 3.0mph /  4.8km/h 6.0mph /  9.7km/h 65% 0.00in /  0mm
22:34 40.4 °F /  4.7 °C 29.6 °F /  -1.3 °C 30.28in /  1025.3hPa NE 3.0mph /  4.8km/h 7.0mph /  11.3km/h 65% 0.00in /  0mm
22:39 40.3 °F /  4.6 °C 29.5 °F /  -1.4 °C 30.28in /  1025.3hPa ENE 3.0mph /  4.8km/h 7.0mph /  11.3km/h 65% 0.00in /  0mm
22:44 40.2 °F /  4.6 °C 29.4 °F /  -1.4 °C 30.28in /  1025.3hPa ENE 3.0mph /  4.8km/h 6.0mph /  9.7km/h 65% 0.00in /  0mm
22:49 40.2 °F /  4.6 °C 29.4 °F /  -1.4 °C 30.27in /  1024.9hPa NE 3.0mph /  4.8km/h 7.0mph /  11.3km/h 65% 0.00in /  0mm
22:54 40.0 °F /  4.4 °C 29.2 °F /  -1.6 °C 30.27in /  1024.9hPa NE 2.0mph /  3.2km/h 5.0mph /  8km/h 65% 0.00in /  0mm
22:59 39.9 °F /  4.4 °C 29.1 °F /  -1.6 °C 30.27in /  1024.9hPa NE 3.0mph /  4.8km/h 6.0mph /  9.7km/h 65% 0.00in /  0mm
23:04 39.9 °F /  4.4 °C 28.7 °F /  -1.8 °C 30.27in /  1024.9hPa ENE 3.0mph /  4.8km/h 6.0mph /  9.7km/h 64% 0.00in /  0mm
23:09 39.8 °F /  4.3 °C 29.0 °F /  -1.7 °C 30.26in /  1024.6hPa East 2.0mph /  3.2km/h 5.0mph /  8km/h 65% 0.00in /  0mm
23:14 39.6 °F /  4.2 °C 28.8 °F /  -1.8 °C 30.26in /  1024.6hPa ENE 2.0mph /  3.2km/h 8.0mph /  12.9km/h 65% 0.00in /  0mm
23:19 39.4 °F /  4.1 °C 28.6 °F /  -1.9 °C 30.26in /  1024.6hPa ENE 3.0mph /  4.8km/h 8.0mph /  12.9km/h 65% 0.00in /  0mm
23:24 39.3 °F /  4.1 °C 28.5 °F /  -1.9 °C 30.26in /  1024.6hPa East 3.0mph /  4.8km/h 7.0mph /  11.3km/h 65% 0.00in /  0mm
23:29 39.1 °F /  3.9 °C 28.3 °F /  -2.1 °C 30.26in /  1024.6hPa East 2.0mph /  3.2km/h 7.0mph /  11.3km/h 65% 0.00in /  0mm
23:34 38.8 °F /  3.8 °C 28.0 °F /  -2.2 °C 30.26in /  1024.6hPa ENE 2.0mph /  3.2km/h 6.0mph /  9.7km/h 65% 0.00in /  0mm
23:39 38.5 °F /  3.6 °C 28.1 °F /  -2.2 °C 30.26in /  1024.6hPa East 2.0mph /  3.2km/h 5.0mph /  8km/h 66% 0.00in /  0mm
23:44 38.3 °F /  3.5 °C 28.3 °F /  -2.1 °C 30.26in /  1024.6hPa East 1.0mph /  1.6km/h 5.0mph /  8km/h 67% 0.00in /  0mm
23:49 38.2 °F /  3.4 °C 28.2 °F /  -2.1 °C 30.26in /  1024.6hPa East 2.0mph /  3.2km/h 5.0mph /  8km/h 67% 0.00in /  0mm
23:54 38.0 °F /  3.3 °C 28.0 °F /  -2.2 °C 30.25in /  1024.3hPa East 1.0mph /  1.6km/h 5.0mph /  8km/h 67% 0.00in /  0mm
23:59 37.9 °F /  3.3 °C 28.3 °F /  -2.1 °C 30.25in /  1024.3hPa ENE 4.0mph /  6.4km/h 5.0mph /  8km/h 68% 0.00in /  0mm
Buffalo, New York, USA
Compliments of Weather Underground - 2.5 mb